Time;durP1;ratioP1;P1;durP2;ratioP2;P2;SDS_P1;SDS_P2;PMS_P1;PMS_P2;Temp;Humidity;BMP_temperature;BMP_pressure;BME280_temperature;BME280_humidity;BME280_pressure;Samples;Min_cycle;Max_cycle;Signal;HPM_P1;HPM_P2
2021/06/16 00:00:26;;;;;;;6.76;4.83;;;;;;;;;;356051;148;860298;-59
2021/06/16 00:01:27;;;;;;;6.31;5.21;;;;;;;;;;357380;150;858019;-59
2021/06/16 00:02:29;;;;;;;8.76;5.50;;;;;;;;;;356324;148;857861;-59
2021/06/16 00:03:30;;;;;;;5.92;5.31;;;;;;;;;;359556;148;857727;-59
2021/06/16 00:04:32;;;;;;;7.96;5.76;;;;;;;;;;355754;148;857390;-60
2021/06/16 00:05:33;;;;;;;7.31;5.57;;;;;;;;;;353530;148;857323;-58
2021/06/16 00:06:35;;;;;;;7.35;5.43;;;;;;;;;;354061;148;857396;-59
2021/06/16 00:07:37;;;;;;;7.61;5.44;;;;;;;;;;352943;148;864926;-59
2021/06/16 00:08:38;;;;;;;6.94;5.29;;;;;;;;;;356631;148;856689;-59
2021/06/16 00:09:40;;;;;;;10.94;5.49;;;;;;;;;;356122;150;857297;-59
2021/06/16 00:10:43;;;;;;;9.20;5.47;;;;;;;;;;359887;146;859106;-58
2021/06/16 00:11:44;;;;;;;6.70;5.34;;;;;;;;;;367340;146;857159;-58
2021/06/16 00:12:46;;;;;;;7.15;4.96;;;;;;;;;;362274;146;859739;-60
2021/06/16 00:13:47;;;;;;;9.15;5.99;;;;;;;;;;356664;148;858487;-59
2021/06/16 00:14:49;;;;;;;6.45;5.58;;;;;;;;;;356926;150;857676;-59
2021/06/16 00:15:50;;;;;;;7.35;5.86;;;;;;;;;;363147;146;857666;-59
2021/06/16 00:16:52;;;;;;;6.31;5.41;;;;;;;;;;351966;149;857254;-58
2021/06/16 00:17:54;;;;;;;7.19;5.30;;;;;;;;;;352093;151;864907;-58
2021/06/16 00:18:55;;;;;;;7.74;5.45;;;;;;;;;;353445;149;857240;-58
2021/06/16 00:19:57;;;;;;;9.21;5.59;;;;;;;;;;348103;152;857460;-59
2021/06/16 00:20:59;;;;;;;7.22;5.78;;;;;;;;;;352613;149;859090;-58
2021/06/16 00:22:00;;;;;;;8.07;5.96;;;;;;;;;;353271;149;858983;-58
2021/06/16 00:23:02;;;;;;;9.57;5.91;;;;;;;;;;353218;150;859337;-59
2021/06/16 00:24:04;;;;;;;12.35;6.17;;;;;;;;;;354499;149;857438;-59
2021/06/16 00:25:06;;;;;;;8.39;6.15;;;;;;;;;;351820;149;857524;-59
2021/06/16 00:26:08;;;;;;;9.58;6.11;;;;;;;;;;351457;149;857236;-59
2021/06/16 00:27:10;;;;;;;8.57;6.00;;;;;;;;;;353846;149;865436;-59
2021/06/16 00:28:11;;;;;;;9.81;6.81;;;;;;;;;;352186;149;865013;-59
2021/06/16 00:29:14;;;;;;;6.91;5.73;;;;;;;;;;352663;149;857432;-60
2021/06/16 00:30:18;;;;;;;7.54;6.12;;;;;;;;;;351538;149;857221;-59
2021/06/16 00:31:20;;;;;;;9.79;6.37;;;;;;;;;;351548;149;858679;-56
2021/06/16 00:32:21;;;;;;;9.58;6.29;;;;;;;;;;351837;149;857359;-59
2021/06/16 00:33:23;;;;;;;8.15;6.07;;;;;;;;;;351055;149;857248;-58
2021/06/16 00:34:24;;;;;;;8.32;6.31;;;;;;;;;;352368;149;857725;-58
2021/06/16 00:35:26;;;;;;;8.34;6.21;;;;;;;;;;354004;149;857313;-59
2021/06/16 00:36:28;;;;;;;7.95;6.51;;;;;;;;;;352253;152;857169;-58
2021/06/16 00:37:30;;;;;;;9.23;6.37;;;;;;;;;;354304;149;857338;-59
2021/06/16 00:38:31;;;;;;;8.51;6.13;;;;;;;;;;354209;150;857876;-57
2021/06/16 00:39:33;;;;;;;8.89;6.24;;;;;;;;;;351794;150;858289;-57
2021/06/16 00:40:35;;;;;;;9.71;6.43;;;;;;;;;;353553;149;857433;-58
2021/06/16 00:41:37;;;;;;;10.01;6.91;;;;;;;;;;354093;150;859003;-57
2021/06/16 00:42:39;;;;;;;8.62;5.93;;;;;;;;;;348850;149;859694;-58
2021/06/16 00:43:40;;;;;;;9.67;6.76;;;;;;;;;;354181;149;866143;-57
2021/06/16 00:44:42;;;;;;;12.83;6.66;;;;;;;;;;347704;152;865965;-57
2021/06/16 00:45:44;;;;;;;8.96;6.51;;;;;;;;;;348375;151;858901;-57
2021/06/16 00:46:46;;;;;;;8.15;6.81;;;;;;;;;;353944;152;859530;-57
2021/06/16 00:47:47;;;;;;;9.39;6.57;;;;;;;;;;350160;151;860318;-58
2021/06/16 00:48:49;;;;;;;8.31;6.91;;;;;;;;;;355584;149;858079;-59
2021/06/16 00:49:50;;;;;;;9.54;6.45;;;;;;;;;;350921;149;857429;-57
2021/06/16 00:50:53;;;;;;;9.79;6.50;;;;;;;;;;354218;149;857318;-57
2021/06/16 00:51:54;;;;;;;8.09;6.68;;;;;;;;;;353038;149;857443;-57
2021/06/16 00:52:56;;;;;;;8.21;6.79;;;;;;;;;;354793;149;865331;-58
2021/06/16 00:53:57;;;;;;;8.74;6.86;;;;;;;;;;354792;149;857416;-57
2021/06/16 00:54:59;;;;;;;11.23;6.19;;;;;;;;;;350372;149;857285;-57
2021/06/16 00:56:00;;;;;;;9.12;6.61;;;;;;;;;;352561;149;857397;-57
2021/06/16 00:57:02;;;;;;;7.86;6.33;;;;;;;;;;353790;149;859040;-57
2021/06/16 00:58:05;;;;;;;9.49;6.29;;;;;;;;;;353734;149;858633;-57
2021/06/16 00:59:07;;;;;;;7.61;6.41;;;;;;;;;;352761;149;864985;-57
2021/06/16 01:00:14;;;;;;;12.88;6.42;;;;;;;;;;351693;149;864946;-59
2021/06/16 01:01:19;;;;;;;9.63;6.37;;;;;;;;;;353609;149;857304;-58
2021/06/16 01:02:21;;;;;;;7.60;6.67;;;;;;;;;;351794;149;859007;-57
2021/06/16 01:03:26;;;;;;;10.16;6.73;;;;;;;;;;351774;152;857399;-57
2021/06/16 01:04:29;;;;;;;9.61;7.16;;;;;;;;;;350549;149;857807;-57
2021/06/16 01:05:32;;;;;;;9.94;6.89;;;;;;;;;;352575;149;857224;-58
2021/06/16 01:06:45;;;;;;;12.53;7.59;;;;;;;;;;352345;149;857368;-57
2021/06/16 01:07:47;;;;;;;9.27;7.21;;;;;;;;;;352517;149;865624;-57
2021/06/16 01:08:56;;;;;;;8.87;6.77;;;;;;;;;;354000;149;858460;-58
2021/06/16 01:10:00;;;;;;;9.11;7.31;;;;;;;;;;353527;149;857839;-57
2021/06/16 01:11:02;;;;;;;9.15;6.97;;;;;;;;;;353594;152;859236;-57
2021/06/16 01:12:08;;;;;;;8.55;6.98;;;;;;;;;;350715;152;858643;-58
2021/06/16 01:13:30;;;;;;;12.33;7.04;;;;;;;;;;353544;149;857789;-59
2021/06/16 01:14:34;;;;;;;8.91;6.89;;;;;;;;;;346386;154;857753;-58
2021/06/16 01:15:41;;;;;;;7.88;7.01;;;;;;;;;;348093;151;859767;-58
2021/06/16 01:16:44;;;;;;;8.28;7.04;;;;;;;;;;347000;151;859238;-58
2021/06/16 01:17:48;;;;;;;8.21;6.78;;;;;;;;;;349805;151;857296;-58
2021/06/16 01:18:51;;;;;;;11.06;6.58;;;;;;;;;;352298;148;865777;-58
2021/06/16 01:20:00;;;;;;;9.98;7.05;;;;;;;;;;352864;148;857377;-58
2021/06/16 01:21:02;;;;;;;9.09;6.87;;;;;;;;;;360770;146;857275;-59
2021/06/16 01:22:03;;;;;;;8.89;6.42;;;;;;;;;;360858;146;859046;-57
2021/06/16 01:23:10;;;;;;;9.69;7.22;;;;;;;;;;360990;146;865826;-57
2021/06/16 01:24:16;;;;;;;14.22;6.81;;;;;;;;;;350767;151;867416;-57
2021/06/16 01:25:24;;;;;;;9.66;7.34;;;;;;;;;;349664;152;857204;-58
2021/06/16 01:26:43;;;;;;;9.01;7.79;;;;;;;;;;363390;146;860128;-58
2021/06/16 01:27:44;;;;;;;9.27;6.42;;;;;;;;;;364230;146;858339;-58
2021/06/16 01:28:46;;;;;;;8.58;7.25;;;;;;;;;;364122;146;857840;-58
2021/06/16 01:29:48;;;;;;;8.91;7.36;;;;;;;;;;361869;146;858923;-58
2021/06/16 01:30:49;;;;;;;9.53;7.41;;;;;;;;;;363157;146;866172;-58
2021/06/16 01:31:51;;;;;;;9.39;7.10;;;;;;;;;;362440;146;866610;-58
2021/06/16 01:32:52;;;;;;;13.73;7.22;;;;;;;;;;362820;146;860782;-59
2021/06/16 01:33:54;;;;;;;8.70;7.34;;;;;;;;;;361041;146;860169;-58
2021/06/16 01:34:55;;;;;;;8.86;7.19;;;;;;;;;;354423;149;858369;-58
2021/06/16 01:35:57;;;;;;;9.37;7.20;;;;;;;;;;365035;146;857369;-58
2021/06/16 01:36:59;;;;;;;9.40;7.33;;;;;;;;;;364679;146;857383;-59
2021/06/16 01:38:01;;;;;;;8.22;6.81;;;;;;;;;;364572;146;865024;-58
2021/06/16 01:39:04;;;;;;;10.21;7.32;;;;;;;;;;363227;146;864979;-59
2021/06/16 01:40:07;;;;;;;11.91;7.35;;;;;;;;;;361564;146;857241;-58
2021/06/16 01:41:09;;;;;;;7.95;6.01;;;;;;;;;;362413;146;857691;-58
2021/06/16 01:42:12;;;;;;;8.42;6.58;;;;;;;;;;364272;146;858987;-58
2021/06/16 01:43:14;;;;;;;9.19;6.34;;;;;;;;;;353169;149;857924;-59
2021/06/16 01:44:15;;;;;;;12.39;6.79;;;;;;;;;;357347;149;858660;-59
2021/06/16 01:45:17;;;;;;;11.67;6.63;;;;;;;;;;357706;149;865433;-59
2021/06/16 01:46:21;;;;;;;9.18;6.80;;;;;;;;;;357263;149;857586;-59
2021/06/16 01:47:23;;;;;;;11.13;7.17;;;;;;;;;;357675;149;865476;-58
2021/06/16 01:48:24;;;;;;;11.72;7.54;;;;;;;;;;357675;149;857334;-59
2021/06/16 01:49:26;;;;;;;12.54;7.04;;;;;;;;;;357306;149;857279;-59
2021/06/16 01:50:28;;;;;;;8.49;6.34;;;;;;;;;;357043;149;865066;-58
2021/06/16 01:51:30;;;;;;;8.11;6.76;;;;;;;;;;356991;148;857600;-58
2021/06/16 01:52:32;;;;;;;7.96;6.46;;;;;;;;;;354143;150;867201;-58
2021/06/16 01:53:34;;;;;;;11.36;7.60;;;;;;;;;;355497;148;858652;-59
2021/06/16 01:54:35;;;;;;;9.69;6.77;;;;;;;;;;362564;148;857986;-59
2021/06/16 01:55:37;;;;;;;9.44;6.25;;;;;;;;;;355867;148;858128;-59
2021/06/16 01:56:40;;;;;;;9.93;7.03;;;;;;;;;;354238;148;864980;-58
2021/06/16 01:57:42;;;;;;;12.99;7.49;;;;;;;;;;355321;148;858045;-58
2021/06/16 01:58:44;;;;;;;8.13;6.81;;;;;;;;;;361423;146;857449;-58
2021/06/16 01:59:46;;;;;;;8.59;7.12;;;;;;;;;;353957;148;864929;-58
2021/06/16 02:00:47;;;;;;;11.31;7.26;;;;;;;;;;352013;149;864911;-58
2021/06/16 02:01:49;;;;;;;9.06;6.99;;;;;;;;;;357154;147;864889;-58
2021/06/16 02:02:51;;;;;;;9.28;6.68;;;;;;;;;;357172;150;857211;-58
2021/06/16 02:03:53;;;;;;;9.96;6.89;;;;;;;;;;356233;147;857241;-59
2021/06/16 02:04:55;;;;;;;12.05;6.65;;;;;;;;;;357521;147;857186;-58
2021/06/16 02:05:57;;;;;;;10.04;6.23;;;;;;;;;;356394;150;857382;-58
2021/06/16 02:07:04;;;;;;;8.93;6.63;;;;;;;;;;358421;147;858103;-58
2021/06/16 02:08:06;;;;;;;10.05;6.89;;;;;;;;;;357058;148;865600;-58
2021/06/16 02:09:08;;;;;;;9.55;7.09;;;;;;;;;;354963;147;858347;-58
2021/06/16 02:10:10;;;;;;;9.53;6.93;;;;;;;;;;357394;147;860402;-58
2021/06/16 02:11:15;;;;;;;9.39;6.47;;;;;;;;;;356257;147;859297;-59
2021/06/16 02:12:17;;;;;;;9.23;6.68;;;;;;;;;;356907;147;857295;-59
2021/06/16 02:13:23;;;;;;;7.79;6.59;;;;;;;;;;356666;147;859354;-58
2021/06/16 02:14:25;;;;;;;12.97;6.85;;;;;;;;;;356571;147;858372;-58
2021/06/16 02:15:28;;;;;;;11.08;6.90;;;;;;;;;;358163;147;857299;-58
2021/06/16 02:16:33;;;;;;;12.18;6.95;;;;;;;;;;359765;147;859568;-59
2021/06/16 02:17:34;;;;;;;9.01;7.04;;;;;;;;;;355722;147;865058;-58
2021/06/16 02:18:41;;;;;;;11.36;7.66;;;;;;;;;;358190;147;857336;-59
2021/06/16 02:19:43;;;;;;;9.21;6.82;;;;;;;;;;354837;147;865098;-58
2021/06/16 02:20:46;;;;;;;10.66;7.49;;;;;;;;;;357969;147;857181;-58
2021/06/16 02:21:48;;;;;;;11.27;7.13;;;;;;;;;;361245;147;857182;-57
2021/06/16 02:22:49;;;;;;;9.11;7.38;;;;;;;;;;358880;147;857279;-57
2021/06/16 02:23:51;;;;;;;11.43;8.01;;;;;;;;;;360669;147;858027;-58
2021/06/16 02:24:55;;;;;;;12.60;7.56;;;;;;;;;;360048;148;859853;-57
2021/06/16 02:25:57;;;;;;;12.78;7.26;;;;;;;;;;359920;147;859690;-58
2021/06/16 02:26:59;;;;;;;18.94;7.75;;;;;;;;;;355886;147;866678;-58
2021/06/16 02:28:00;;;;;;;10.59;7.61;;;;;;;;;;357834;147;865530;-59
2021/06/16 02:29:05;;;;;;;10.89;8.49;;;;;;;;;;361651;147;857302;-59
2021/06/16 02:30:08;;;;;;;9.35;7.72;;;;;;;;;;358730;149;859345;-58
2021/06/16 02:31:09;;;;;;;8.47;7.57;;;;;;;;;;357312;147;859011;-59
2021/06/16 02:32:11;;;;;;;10.47;7.56;;;;;;;;;;359636;149;858824;-59
2021/06/16 02:33:13;;;;;;;10.56;6.75;;;;;;;;;;358136;149;864861;-58
2021/06/16 02:34:14;;;;;;;10.64;6.75;;;;;;;;;;360544;148;857286;-58
2021/06/16 02:35:16;;;;;;;7.80;6.59;;;;;;;;;;361228;148;865128;-58
2021/06/16 02:36:19;;;;;;;10.57;6.90;;;;;;;;;;353513;149;858181;-59
2021/06/16 02:37:21;;;;;;;10.19;6.95;;;;;;;;;;356933;147;857183;-58
2021/06/16 02:38:24;;;;;;;10.10;7.23;;;;;;;;;;356122;147;857265;-58
2021/06/16 02:39:43;;;;;;;12.61;7.63;;;;;;;;;;357382;147;859502;-58
2021/06/16 02:40:46;;;;;;;12.06;7.73;;;;;;;;;;357340;147;857313;-59
2021/06/16 02:41:48;;;;;;;10.35;7.45;;;;;;;;;;356492;147;858741;-58
2021/06/16 02:42:49;;;;;;;12.23;7.41;;;;;;;;;;356460;147;857219;-58
2021/06/16 02:43:51;;;;;;;10.27;7.44;;;;;;;;;;357687;147;857300;-57
2021/06/16 02:44:52;;;;;;;11.19;7.83;;;;;;;;;;357475;147;857640;-58
2021/06/16 02:45:55;;;;;;;12.88;8.13;;;;;;;;;;356209;150;857288;-59
2021/06/16 02:46:58;;;;;;;10.98;7.74;;;;;;;;;;358020;148;857650;-58
2021/06/16 02:48:00;;;;;;;10.89;7.36;;;;;;;;;;353768;149;859074;-58
2021/06/16 02:49:02;;;;;;;9.81;6.98;;;;;;;;;;354039;151;865392;-58
2021/06/16 02:50:04;;;;;;;10.95;7.16;;;;;;;;;;361162;146;857290;-57
2021/06/16 02:51:06;;;;;;;9.98;6.77;;;;;;;;;;361598;146;857395;-59
2021/06/16 02:52:08;;;;;;;8.73;6.47;;;;;;;;;;361352;146;859046;-58
2021/06/16 02:53:12;;;;;;;9.78;6.97;;;;;;;;;;361427;146;857873;-58
2021/06/16 02:54:17;;;;;;;9.02;6.69;;;;;;;;;;359350;148;857163;-56
2021/06/16 02:55:19;;;;;;;10.22;6.74;;;;;;;;;;360977;146;857235;-58
2021/06/16 02:56:22;;;;;;;7.67;6.55;;;;;;;;;;359948;146;857152;-57
2021/06/16 02:57:24;;;;;;;8.54;6.75;;;;;;;;;;360357;146;857215;-57
2021/06/16 02:58:26;;;;;;;8.82;6.41;;;;;;;;;;359120;147;859643;-58
2021/06/16 02:59:28;;;;;;;8.61;6.50;;;;;;;;;;352419;149;860203;-57
2021/06/16 03:00:31;;;;;;;9.39;6.75;;;;;;;;;;352917;151;858859;-59
2021/06/16 03:01:33;;;;;;;7.61;6.25;;;;;;;;;;360418;146;865154;-58
2021/06/16 03:02:34;;;;;;;8.09;6.21;;;;;;;;;;350620;149;858447;-58
2021/06/16 03:03:36;;;;;;;8.49;6.09;;;;;;;;;;360731;148;857324;-59
2021/06/16 03:04:38;;;;;;;8.76;6.46;;;;;;;;;;361376;146;865065;-58
2021/06/16 03:05:39;;;;;;;9.07;6.65;;;;;;;;;;354221;149;857333;-58
2021/06/16 03:06:41;;;;;;;8.85;6.44;;;;;;;;;;361571;145;857766;-57
2021/06/16 03:07:43;;;;;;;8.40;6.72;;;;;;;;;;370000;143;859873;-57
2021/06/16 03:08:46;;;;;;;8.41;6.37;;;;;;;;;;366946;143;858412;-58
2021/06/16 03:09:47;;;;;;;10.58;6.75;;;;;;;;;;368724;143;865093;-58
2021/06/16 03:10:49;;;;;;;8.73;6.43;;;;;;;;;;370747;143;857146;-57
2021/06/16 03:11:51;;;;;;;9.36;7.00;;;;;;;;;;369000;143;857182;-59
2021/06/16 03:12:53;;;;;;;9.03;6.59;;;;;;;;;;369069;143;857279;-59
2021/06/16 03:13:55;;;;;;;9.57;6.45;;;;;;;;;;366425;145;866732;-58
2021/06/16 03:14:56;;;;;;;8.50;6.24;;;;;;;;;;369733;144;857287;-58
2021/06/16 03:15:58;;;;;;;9.40;6.27;;;;;;;;;;369288;143;859076;-58
2021/06/16 03:17:00;;;;;;;10.86;6.60;;;;;;;;;;371897;143;858208;-58
2021/06/16 03:18:04;;;;;;;9.61;6.00;;;;;;;;;;367096;144;859011;-58
2021/06/16 03:19:06;;;;;;;9.41;6.47;;;;;;;;;;369718;143;865229;-58
2021/06/16 03:20:09;;;;;;;8.41;6.12;;;;;;;;;;369720;143;857714;-58
2021/06/16 03:21:11;;;;;;;9.43;6.03;;;;;;;;;;368140;143;858854;-59
2021/06/16 03:22:13;;;;;;;7.32;6.26;;;;;;;;;;370189;143;858513;-58
2021/06/16 03:23:14;;;;;;;6.05;5.44;;;;;;;;;;370169;143;857229;-58
2021/06/16 03:24:19;;;;;;;9.08;6.24;;;;;;;;;;368929;143;857237;-58
2021/06/16 03:25:21;;;;;;;8.46;5.85;;;;;;;;;;372213;142;858210;-58
2021/06/16 03:26:26;;;;;;;10.43;5.92;;;;;;;;;;370208;143;857218;-59
2021/06/16 03:27:26;;;;;;;8.24;5.82;;;;;;;;;;370546;143;860490;-58
2021/06/16 03:28:28;;;;;;;10.74;6.41;;;;;;;;;;369019;143;857329;-58
2021/06/16 03:29:29;;;;;;;6.80;5.58;;;;;;;;;;372422;143;860348;-59
2021/06/16 03:30:31;;;;;;;9.33;5.50;;;;;;;;;;368645;143;865858;-59
2021/06/16 03:31:33;;;;;;;8.95;6.33;;;;;;;;;;368562;143;858822;-58
2021/06/16 03:32:35;;;;;;;9.12;6.01;;;;;;;;;;370663;143;857852;-58
2021/06/16 03:33:37;;;;;;;7.38;5.66;;;;;;;;;;369360;143;857437;-58
2021/06/16 03:34:38;;;;;;;9.02;6.16;;;;;;;;;;370300;143;857463;-58
2021/06/16 03:35:40;;;;;;;9.61;5.48;;;;;;;;;;369625;143;856464;-56
2021/06/16 03:36:43;;;;;;;8.82;6.06;;;;;;;;;;370135;143;857809;-59
2021/06/16 03:37:45;;;;;;;8.23;5.87;;;;;;;;;;368726;144;858708;-59
2021/06/16 03:38:46;;;;;;;8.96;5.78;;;;;;;;;;369511;143;857189;-59
2021/06/16 03:39:52;;;;;;;11.12;5.51;;;;;;;;;;370305;143;857457;-58
2021/06/16 03:40:54;;;;;;;8.82;6.41;;;;;;;;;;369051;143;857227;-58
2021/06/16 03:41:55;;;;;;;8.15;5.64;;;;;;;;;;368934;143;857356;-59
2021/06/16 03:42:57;;;;;;;7.18;5.49;;;;;;;;;;372007;143;859776;-59
2021/06/16 03:43:59;;;;;;;8.29;5.49;;;;;;;;;;368961;142;857338;-57
2021/06/16 03:45:00;;;;;;;8.19;5.79;;;;;;;;;;369587;143;857350;-58
2021/06/16 03:46:06;;;;;;;7.73;5.82;;;;;;;;;;368920;143;857454;-56
2021/06/16 03:47:07;;;;;;;6.78;5.58;;;;;;;;;;370607;143;859999;-57
2021/06/16 03:48:09;;;;;;;8.54;5.44;;;;;;;;;;370445;143;858869;-58
2021/06/16 03:50:36;;;;;;;8.59;5.46;;;;;;;;;;354630;150;857215;-60
2021/06/16 03:51:39;;;;;;;6.77;5.34;;;;;;;;;;352006;150;857320;-57
2021/06/16 03:52:41;;;;;;;9.34;5.69;;;;;;;;;;356151;149;859068;-58
2021/06/16 03:53:43;;;;;;;8.59;5.20;;;;;;;;;;357016;150;858886;-59
2021/06/16 03:54:45;;;;;;;7.73;5.21;;;;;;;;;;356680;150;857152;-58
2021/06/16 03:55:47;;;;;;;7.22;5.53;;;;;;;;;;357024;149;857193;-58
2021/06/16 03:56:49;;;;;;;8.38;5.07;;;;;;;;;;356366;149;857176;-58
2021/06/16 03:57:50;;;;;;;7.77;5.53;;;;;;;;;;356234;149;857468;-58
2021/06/16 03:58:52;;;;;;;8.24;5.69;;;;;;;;;;357299;149;857389;-58
2021/06/16 03:59:54;;;;;;;10.89;5.77;;;;;;;;;;356261;149;857306;-61
2021/06/16 04:00:56;;;;;;;10.42;5.96;;;;;;;;;;354585;149;857787;-58
2021/06/16 04:01:57;;;;;;;8.17;5.40;;;;;;;;;;356404;149;858665;-58
2021/06/16 04:02:59;;;;;;;8.19;5.53;;;;;;;;;;355312;149;858740;-58
2021/06/16 04:04:02;;;;;;;10.92;5.61;;;;;;;;;;348713;151;858332;-61
2021/06/16 04:05:05;;;;;;;7.94;5.43;;;;;;;;;;348697;153;856306;-63
2021/06/16 04:06:06;;;;;;;10.59;5.57;;;;;;;;;;347889;153;857823;-61
2021/06/16 04:07:08;;;;;;;9.31;5.59;;;;;;;;;;350918;151;857522;-59
2021/06/16 04:08:10;;;;;;;8.89;5.71;;;;;;;;;;337569;158;858077;-59
2021/06/16 04:09:12;;;;;;;7.37;5.80;;;;;;;;;;348329;152;859275;-60
2021/06/16 04:10:14;;;;;;;7.94;5.71;;;;;;;;;;348689;152;857395;-61
2021/06/16 04:11:16;;;;;;;9.51;5.66;;;;;;;;;;349296;153;857287;-60
2021/06/16 04:12:18;;;;;;;7.32;5.29;;;;;;;;;;343942;154;865026;-60
2021/06/16 04:13:19;;;;;;;6.27;5.21;;;;;;;;;;342546;156;865374;-62
2021/06/16 04:14:22;;;;;;;7.15;5.35;;;;;;;;;;347311;155;858811;-62
2021/06/16 04:15:24;;;;;;;8.72;4.86;;;;;;;;;;344077;154;858547;-63
2021/06/16 04:16:27;;;;;;;13.09;5.49;;;;;;;;;;348785;154;858887;-62
2021/06/16 04:17:29;;;;;;;7.34;5.28;;;;;;;;;;340349;156;857282;-61
2021/06/16 04:18:32;;;;;;;11.24;5.86;;;;;;;;;;343219;154;859157;-60
2021/06/16 04:19:34;;;;;;;7.57;5.58;;;;;;;;;;349825;154;859017;-60
2021/06/16 04:20:37;;;;;;;5.86;4.84;;;;;;;;;;354839;149;857460;-61
2021/06/16 04:21:40;;;;;;;10.16;5.62;;;;;;;;;;355526;149;857398;-61
2021/06/16 04:22:42;;;;;;;8.81;5.51;;;;;;;;;;356270;151;857413;-64
2021/06/16 04:23:44;;;;;;;9.47;5.51;;;;;;;;;;356971;148;857369;-62
2021/06/16 04:24:45;;;;;;;7.51;5.47;;;;;;;;;;358503;149;857169;-61
2021/06/16 04:25:47;;;;;;;7.09;5.54;;;;;;;;;;356615;148;858975;-62
2021/06/16 04:26:49;;;;;;;10.06;5.09;;;;;;;;;;356833;149;859048;-65
2021/06/16 04:27:51;;;;;;;8.69;5.22;;;;;;;;;;355725;151;858173;-61
2021/06/16 04:28:53;;;;;;;7.30;5.66;;;;;;;;;;356323;148;856554;-61
2021/06/16 04:29:54;;;;;;;6.72;5.37;;;;;;;;;;357248;149;856354;-61
2021/06/16 04:30:57;;;;;;;6.33;5.23;;;;;;;;;;356031;151;858742;-61
2021/06/16 04:31:58;;;;;;;8.42;5.65;;;;;;;;;;356244;149;857835;-60
2021/06/16 04:33:00;;;;;;;8.11;5.17;;;;;;;;;;355982;149;857944;-62
2021/06/16 04:34:02;;;;;;;8.39;5.34;;;;;;;;;;349318;153;857301;-62
2021/06/16 04:35:04;;;;;;;7.78;5.79;;;;;;;;;;348374;151;864854;-62
2021/06/16 04:36:07;;;;;;;6.83;5.39;;;;;;;;;;349353;152;857867;-62
2021/06/16 04:37:09;;;;;;;6.64;5.87;;;;;;;;;;349180;152;865477;-62
2021/06/16 04:38:11;;;;;;;6.31;5.51;;;;;;;;;;342813;155;859381;-62
2021/06/16 04:39:12;;;;;;;9.74;5.69;;;;;;;;;;340134;156;864809;-62
2021/06/16 04:40:15;;;;;;;9.89;5.58;;;;;;;;;;343910;155;857273;-61
2021/06/16 04:41:16;;;;;;;8.70;5.79;;;;;;;;;;350562;151;857204;-62
2021/06/16 04:42:18;;;;;;;8.14;5.64;;;;;;;;;;349640;153;857242;-60
2021/06/16 04:43:20;;;;;;;6.04;5.23;;;;;;;;;;348688;151;857748;-61
2021/06/16 04:44:21;;;;;;;8.51;5.21;;;;;;;;;;349738;151;857328;-61
2021/06/16 04:45:23;;;;;;;12.00;5.26;;;;;;;;;;339016;155;857398;-61
2021/06/16 04:46:27;;;;;;;7.45;5.61;;;;;;;;;;352231;151;857320;-62
2021/06/16 04:47:28;;;;;;;6.06;5.46;;;;;;;;;;349019;152;858998;-61
2021/06/16 04:48:30;;;;;;;5.96;5.26;;;;;;;;;;350622;151;857772;-61
2021/06/16 04:49:32;;;;;;;6.04;5.26;;;;;;;;;;349712;152;857516;-61
2021/06/16 04:50:35;;;;;;;10.21;5.49;;;;;;;;;;347707;153;857376;-62
2021/06/16 04:51:37;;;;;;;7.26;5.05;;;;;;;;;;348722;151;859182;-61
2021/06/16 04:52:39;;;;;;;5.77;5.14;;;;;;;;;;348849;151;857464;-61
2021/06/16 04:53:41;;;;;;;7.15;5.30;;;;;;;;;;350123;153;858536;-61
2021/06/16 04:54:42;;;;;;;7.21;5.01;;;;;;;;;;348626;152;858145;-60
2021/06/16 04:55:44;;;;;;;8.38;4.91;;;;;;;;;;348096;151;858414;-60
2021/06/16 04:56:47;;;;;;;7.47;4.84;;;;;;;;;;348531;152;857256;-60
2021/06/16 04:57:49;;;;;;;5.91;4.66;;;;;;;;;;350594;151;857234;-61
2021/06/16 04:58:50;;;;;;;6.76;4.87;;;;;;;;;;350986;153;858559;-61
2021/06/16 04:59:52;;;;;;;6.23;4.86;;;;;;;;;;350948;151;858206;-61
2021/06/16 05:00:54;;;;;;;6.10;4.71;;;;;;;;;;351306;151;857414;-61
2021/06/16 05:01:58;;;;;;;5.79;4.55;;;;;;;;;;348922;153;858824;-62
2021/06/16 05:03:00;;;;;;;6.28;4.85;;;;;;;;;;350412;152;859406;-61
2021/06/16 05:04:02;;;;;;;5.36;4.46;;;;;;;;;;351596;151;857455;-61
2021/06/16 05:05:04;;;;;;;7.33;4.47;;;;;;;;;;350471;153;859874;-60
2021/06/16 05:06:06;;;;;;;5.23;4.49;;;;;;;;;;350093;152;859277;-59
2021/06/16 05:07:07;;;;;;;5.41;4.44;;;;;;;;;;351353;153;865718;-61
2021/06/16 05:08:09;;;;;;;6.46;4.74;;;;;;;;;;350962;153;864737;-60
2021/06/16 05:09:11;;;;;;;8.68;4.40;;;;;;;;;;350844;151;857207;-60
2021/06/16 05:10:13;;;;;;;7.03;4.29;;;;;;;;;;348992;153;857303;-61
2021/06/16 05:11:15;;;;;;;5.19;4.17;;;;;;;;;;350286;153;864858;-60
2021/06/16 05:12:16;;;;;;;6.74;4.35;;;;;;;;;;350893;151;857253;-60
2021/06/16 05:13:22;;;;;;;5.56;4.16;;;;;;;;;;351463;153;857257;-59
2021/06/16 05:14:24;;;;;;;6.67;3.69;;;;;;;;;;350007;151;857411;-60
2021/06/16 05:15:26;;;;;;;4.79;4.26;;;;;;;;;;347916;151;857810;-61
2021/06/16 05:16:29;;;;;;;6.11;4.20;;;;;;;;;;348171;153;858555;-60
2021/06/16 05:17:31;;;;;;;6.94;4.29;;;;;;;;;;349301;151;858253;-60
2021/06/16 05:18:33;;;;;;;6.89;3.99;;;;;;;;;;348551;153;864866;-61
2021/06/16 05:19:35;;;;;;;7.63;4.21;;;;;;;;;;350654;151;857330;-61
2021/06/16 05:20:37;;;;;;;5.87;4.10;;;;;;;;;;347988;151;857425;-61
2021/06/16 05:21:38;;;;;;;6.99;4.24;;;;;;;;;;348274;153;859121;-60
2021/06/16 05:22:40;;;;;;;6.64;4.26;;;;;;;;;;349488;151;858294;-60
2021/06/16 05:23:42;;;;;;;6.83;4.11;;;;;;;;;;349218;151;866221;-60
2021/06/16 05:24:44;;;;;;;6.16;3.55;;;;;;;;;;350993;153;865418;-61
2021/06/16 05:25:48;;;;;;;5.60;3.96;;;;;;;;;;348514;152;865820;-61
2021/06/16 05:26:49;;;;;;;6.41;4.04;;;;;;;;;;350677;152;859202;-60
2021/06/16 05:27:51;;;;;;;6.39;3.89;;;;;;;;;;350923;153;857358;-59
2021/06/16 05:28:53;;;;;;;6.19;3.88;;;;;;;;;;350690;151;859697;-60
2021/06/16 05:29:54;;;;;;;5.54;3.95;;;;;;;;;;346808;151;858585;-61
2021/06/16 05:30:56;;;;;;;9.78;3.64;;;;;;;;;;347807;151;858836;-60
2021/06/16 05:31:58;;;;;;;8.42;3.86;;;;;;;;;;349055;151;859221;-60
2021/06/16 05:33:00;;;;;;;5.25;3.83;;;;;;;;;;350845;153;864884;-61
2021/06/16 05:34:02;;;;;;;5.18;3.45;;;;;;;;;;350285;153;864823;-61
2021/06/16 05:35:04;;;;;;;5.73;3.66;;;;;;;;;;351086;151;858074;-61
2021/06/16 05:36:07;;;;;;;4.62;3.66;;;;;;;;;;350847;153;864746;-60
2021/06/16 05:37:08;;;;;;;6.80;3.80;;;;;;;;;;350502;151;858550;-60
2021/06/16 05:38:10;;;;;;;4.93;3.42;;;;;;;;;;348222;151;857286;-61
2021/06/16 05:39:11;;;;;;;3.66;3.36;;;;;;;;;;350882;153;864766;-60
2021/06/16 05:40:14;;;;;;;4.44;3.26;;;;;;;;;;350785;151;857266;-59
2021/06/16 05:41:15;;;;;;;4.09;2.99;;;;;;;;;;347475;153;864717;-59
2021/06/16 05:42:17;;;;;;;5.39;3.16;;;;;;;;;;348841;153;858982;-61
2021/06/16 05:43:18;;;;;;;4.86;3.10;;;;;;;;;;348553;151;859747;-60
2021/06/16 05:44:20;;;;;;;4.24;3.13;;;;;;;;;;348090;153;859779;-60
2021/06/16 05:45:22;;;;;;;3.81;3.15;;;;;;;;;;347352;153;858655;-58
2021/06/16 05:46:24;;;;;;;6.75;3.22;;;;;;;;;;348798;152;857322;-58
2021/06/16 05:47:26;;;;;;;3.59;3.11;;;;;;;;;;350578;153;865421;-59
2021/06/16 05:48:27;;;;;;;4.12;3.66;;;;;;;;;;350632;152;857214;-60
2021/06/16 05:49:29;;;;;;;4.31;3.12;;;;;;;;;;350153;151;857322;-60
2021/06/16 05:50:32;;;;;;;5.58;3.29;;;;;;;;;;347864;153;857282;-59
2021/06/16 05:51:34;;;;;;;6.56;3.41;;;;;;;;;;349940;152;857864;-58
2021/06/16 05:52:35;;;;;;;5.60;3.14;;;;;;;;;;351276;153;857387;-59
2021/06/16 05:53:37;;;;;;;4.75;3.01;;;;;;;;;;351698;153;859114;-59
2021/06/16 05:54:39;;;;;;;5.15;2.99;;;;;;;;;;351942;151;859096;-60
2021/06/16 05:55:40;;;;;;;5.95;3.35;;;;;;;;;;350533;151;857950;-60
2021/06/16 05:56:44;;;;;;;7.36;3.23;;;;;;;;;;348296;153;859979;-61
2021/06/16 05:57:45;;;;;;;3.77;3.11;;;;;;;;;;350227;151;857215;-59
2021/06/16 05:58:47;;;;;;;3.14;2.84;;;;;;;;;;349876;153;860044;-58
2021/06/16 05:59:49;;;;;;;3.93;3.23;;;;;;;;;;350896;152;858856;-60
2021/06/16 06:00:51;;;;;;;3.51;2.77;;;;;;;;;;350726;151;857331;-59
2021/06/16 06:01:53;;;;;;;8.80;2.80;;;;;;;;;;351433;152;859224;-60
2021/06/16 06:02:54;;;;;;;3.58;2.90;;;;;;;;;;351280;152;857354;-60
2021/06/16 06:03:56;;;;;;;4.69;3.09;;;;;;;;;;348703;153;866524;-59
2021/06/16 06:04:57;;;;;;;3.56;2.71;;;;;;;;;;350172;153;859121;-60
2021/06/16 06:05:59;;;;;;;3.23;2.60;;;;;;;;;;349784;151;859053;-60
2021/06/16 06:07:02;;;;;;;3.56;2.90;;;;;;;;;;350445;153;857602;-59
2021/06/16 06:08:05;;;;;;;4.68;2.89;;;;;;;;;;350559;153;866396;-59
2021/06/16 06:09:07;;;;;;;6.04;3.09;;;;;;;;;;350598;152;858645;-59